SLP weather

Ponciano Arriaga International Airport
San Luis Potosí, San Luis Potosi, Mexico

Public forecast

Using degrees Celsius for public forecast. Weather courtesy of forecast.io.

METAR (pilot weather report)

Retrieved 2019/04/26 15:47 UTC (18 minutes ago):

MMSP 261547Z 13009KT 6SM BKN025 21/10 A3034 RMK 8/500 HZY

TAF (pilot weather forecast)

Retrieved 2019/04/26 12:15 UTC (4 hours ago):

TAF MMSP 261015Z 2612/2718 00000KT P6SM SCT230 TX28/2621Z TN13/2612Z TEMPO 2612/2615 3SM BR FM261800 12010KT P6SM SCT080 SCT240 FM270600 12015KT P6SM SCT240 BECMG 2710/2712 28005KT 5SM HZ